sensor_id;sensor_type;location;lat;lon;timestamp;P1;durP1;ratioP1;P2;durP2;ratioP2
16624;SDS011;8426;48.496;9.098;2023-12-20T00:03:54;1.27;;;0.60;;
16624;SDS011;8426;48.496;9.098;2023-12-20T00:09:01;0.98;;;0.50;;
16624;SDS011;8426;48.496;9.098;2023-12-20T00:14:05;1.30;;;0.57;;
16624;SDS011;8426;48.496;9.098;2023-12-20T00:19:11;1.20;;;0.60;;
16624;SDS011;8426;48.496;9.098;2023-12-20T00:24:17;0.73;;;0.45;;
16624;SDS011;8426;48.496;9.098;2023-12-20T00:29:26;0.40;;;0.40;;
16624;SDS011;8426;48.496;9.098;2023-12-20T00:34:30;0.82;;;0.52;;
16624;SDS011;8426;48.496;9.098;2023-12-20T00:39:42;0.30;;;0.30;;
16624;SDS011;8426;48.496;9.098;2023-12-20T00:44:54;1.05;;;0.63;;
16624;SDS011;8426;48.496;9.098;2023-12-20T00:50:01;0.65;;;0.43;;
16624;SDS011;8426;48.496;9.098;2023-12-20T00:55:07;0.50;;;0.50;;
16624;SDS011;8426;48.496;9.098;2023-12-20T01:00:12;0.40;;;0.40;;
16624;SDS011;8426;48.496;9.098;2023-12-20T01:05:22;0.45;;;0.40;;
16624;SDS011;8426;48.496;9.098;2023-12-20T01:10:27;1.15;;;0.60;;
16624;SDS011;8426;48.496;9.098;2023-12-20T01:15:31;2.75;;;0.70;;
16624;SDS011;8426;48.496;9.098;2023-12-20T01:20:35;1.50;;;0.80;;
16624;SDS011;8426;48.496;9.098;2023-12-20T01:25:41;1.30;;;0.80;;
16624;SDS011;8426;48.496;9.098;2023-12-20T01:30:45;1.02;;;0.70;;
16624;SDS011;8426;48.496;9.098;2023-12-20T01:35:50;1.27;;;0.70;;
16624;SDS011;8426;48.496;9.098;2023-12-20T01:40:57;0.68;;;0.52;;
16624;SDS011;8426;48.496;9.098;2023-12-20T01:46:01;1.23;;;0.60;;
16624;SDS011;8426;48.496;9.098;2023-12-20T01:51:07;0.75;;;0.60;;
16624;SDS011;8426;48.496;9.098;2023-12-20T01:56:13;0.85;;;0.60;;
16624;SDS011;8426;48.496;9.098;2023-12-20T02:01:21;0.40;;;0.40;;
16624;SDS011;8426;48.496;9.098;2023-12-20T02:06:26;0.57;;;0.40;;
16624;SDS011;8426;48.496;9.098;2023-12-20T02:11:34;0.70;;;0.60;;
16624;SDS011;8426;48.496;9.098;2023-12-20T02:16:39;0.98;;;0.60;;
16624;SDS011;8426;48.496;9.098;2023-12-20T02:21:44;1.85;;;0.70;;
16624;SDS011;8426;48.496;9.098;2023-12-20T02:26:49;0.40;;;0.40;;
16624;SDS011;8426;48.496;9.098;2023-12-20T02:31:53;1.90;;;0.57;;
16624;SDS011;8426;48.496;9.098;2023-12-20T02:36:58;0.65;;;0.50;;
16624;SDS011;8426;48.496;9.098;2023-12-20T02:42:03;1.15;;;0.80;;
16624;SDS011;8426;48.496;9.098;2023-12-20T02:47:07;0.95;;;0.65;;
16624;SDS011;8426;48.496;9.098;2023-12-20T02:52:12;0.50;;;0.50;;
16624;SDS011;8426;48.496;9.098;2023-12-20T02:57:22;0.60;;;0.40;;
16624;SDS011;8426;48.496;9.098;2023-12-20T03:02:26;3.05;;;0.80;;
16624;SDS011;8426;48.496;9.098;2023-12-20T03:07:31;1.02;;;0.50;;
16624;SDS011;8426;48.496;9.098;2023-12-20T03:12:36;0.50;;;0.50;;
16624;SDS011;8426;48.496;9.098;2023-12-20T03:17:39;1.02;;;0.65;;
16624;SDS011;8426;48.496;9.098;2023-12-20T03:22:51;0.30;;;0.30;;
16624;SDS011;8426;48.496;9.098;2023-12-20T03:27:56;0.40;;;0.40;;
16624;SDS011;8426;48.496;9.098;2023-12-20T03:32:59;0.50;;;0.43;;
16624;SDS011;8426;48.496;9.098;2023-12-20T03:38:08;0.60;;;0.50;;
16624;SDS011;8426;48.496;9.098;2023-12-20T03:43:11;0.40;;;0.40;;
16624;SDS011;8426;48.496;9.098;2023-12-20T03:48:23;1.02;;;0.47;;
16624;SDS011;8426;48.496;9.098;2023-12-20T03:53:33;0.50;;;0.40;;
16624;SDS011;8426;48.496;9.098;2023-12-20T03:58:43;0.30;;;0.30;;
16624;SDS011;8426;48.496;9.098;2023-12-20T04:03:47;3.08;;;0.55;;
16624;SDS011;8426;48.496;9.098;2023-12-20T04:08:55;0.47;;;0.35;;
16624;SDS011;8426;48.496;9.098;2023-12-20T04:13:59;3.40;;;0.40;;
16624;SDS011;8426;48.496;9.098;2023-12-20T04:19:09;0.30;;;0.30;;
16624;SDS011;8426;48.496;9.098;2023-12-20T04:24:16;0.32;;;0.30;;
16624;SDS011;8426;48.496;9.098;2023-12-20T04:29:26;0.20;;;0.20;;
16624;SDS011;8426;48.496;9.098;2023-12-20T04:34:32;0.20;;;0.20;;
16624;SDS011;8426;48.496;9.098;2023-12-20T04:39:36;0.20;;;0.20;;
16624;SDS011;8426;48.496;9.098;2023-12-20T04:44:41;0.20;;;0.20;;
16624;SDS011;8426;48.496;9.098;2023-12-20T04:49:51;0.20;;;0.20;;
16624;SDS011;8426;48.496;9.098;2023-12-20T04:54:57;0.20;;;0.20;;
16624;SDS011;8426;48.496;9.098;2023-12-20T05:00:01;0.20;;;0.20;;
16624;SDS011;8426;48.496;9.098;2023-12-20T05:10:30;0.22;;;0.22;;
16624;SDS011;8426;48.496;9.098;2023-12-20T05:15:45;0.30;;;0.30;;
16624;SDS011;8426;48.496;9.098;2023-12-20T05:20:50;0.22;;;0.22;;
16624;SDS011;8426;48.496;9.098;2023-12-20T05:26:01;2.38;;;0.30;;
16624;SDS011;8426;48.496;9.098;2023-12-20T05:31:05;2.95;;;0.30;;
16624;SDS011;8426;48.496;9.098;2023-12-20T05:36:11;0.30;;;0.30;;
16624;SDS011;8426;48.496;9.098;2023-12-20T05:41:24;0.20;;;0.20;;
16624;SDS011;8426;48.496;9.098;2023-12-20T05:46:27;0.20;;;0.20;;
16624;SDS011;8426;48.496;9.098;2023-12-20T05:51:32;0.30;;;0.30;;
16624;SDS011;8426;48.496;9.098;2023-12-20T05:56:37;1.20;;;0.30;;
16624;SDS011;8426;48.496;9.098;2023-12-20T06:01:43;0.43;;;0.30;;
16624;SDS011;8426;48.496;9.098;2023-12-20T06:06:47;0.43;;;0.30;;
16624;SDS011;8426;48.496;9.098;2023-12-20T06:11:52;0.20;;;0.20;;
16624;SDS011;8426;48.496;9.098;2023-12-20T06:16:56;0.20;;;0.20;;
16624;SDS011;8426;48.496;9.098;2023-12-20T06:22:01;0.30;;;0.30;;
16624;SDS011;8426;48.496;9.098;2023-12-20T06:27:08;0.30;;;0.30;;
16624;SDS011;8426;48.496;9.098;2023-12-20T06:32:12;1.38;;;0.30;;
16624;SDS011;8426;48.496;9.098;2023-12-20T06:37:15;0.40;;;0.30;;
16624;SDS011;8426;48.496;9.098;2023-12-20T06:42:22;0.20;;;0.20;;
16624;SDS011;8426;48.496;9.098;2023-12-20T06:47:26;0.50;;;0.30;;
16624;SDS011;8426;48.496;9.098;2023-12-20T06:52:30;0.50;;;0.40;;
16624;SDS011;8426;48.496;9.098;2023-12-20T06:57:39;0.60;;;0.35;;
16624;SDS011;8426;48.496;9.098;2023-12-20T07:02:44;0.30;;;0.30;;
16624;SDS011;8426;48.496;9.098;2023-12-20T07:07:50;1.00;;;0.52;;
16624;SDS011;8426;48.496;9.098;2023-12-20T07:13:01;1.10;;;0.70;;
16624;SDS011;8426;48.496;9.098;2023-12-20T07:18:05;1.55;;;0.43;;
16624;SDS011;8426;48.496;9.098;2023-12-20T07:23:10;0.38;;;0.30;;
16624;SDS011;8426;48.496;9.098;2023-12-20T07:28:18;0.68;;;0.40;;
16624;SDS011;8426;48.496;9.098;2023-12-20T07:33:22;2.55;;;0.40;;
16624;SDS011;8426;48.496;9.098;2023-12-20T07:38:26;0.40;;;0.30;;
16624;SDS011;8426;48.496;9.098;2023-12-20T07:43:32;0.30;;;0.30;;
16624;SDS011;8426;48.496;9.098;2023-12-20T07:48:36;1.52;;;0.40;;
16624;SDS011;8426;48.496;9.098;2023-12-20T07:53:43;0.30;;;0.30;;
16624;SDS011;8426;48.496;9.098;2023-12-20T07:58:50;0.32;;;0.30;;
16624;SDS011;8426;48.496;9.098;2023-12-20T08:03:57;0.30;;;0.30;;
16624;SDS011;8426;48.496;9.098;2023-12-20T08:09:08;0.43;;;0.40;;
16624;SDS011;8426;48.496;9.098;2023-12-20T08:14:22;0.30;;;0.30;;
16624;SDS011;8426;48.496;9.098;2023-12-20T08:19:28;0.40;;;0.30;;
16624;SDS011;8426;48.496;9.098;2023-12-20T08:24:31;0.40;;;0.30;;
16624;SDS011;8426;48.496;9.098;2023-12-20T08:29:36;2.65;;;0.40;;
16624;SDS011;8426;48.496;9.098;2023-12-20T08:34:40;0.30;;;0.30;;
16624;SDS011;8426;48.496;9.098;2023-12-20T08:39:46;0.30;;;0.30;;
16624;SDS011;8426;48.496;9.098;2023-12-20T08:44:52;0.40;;;0.30;;
16624;SDS011;8426;48.496;9.098;2023-12-20T08:49:55;0.50;;;0.35;;
16624;SDS011;8426;48.496;9.098;2023-12-20T08:55:02;1.40;;;0.40;;
16624;SDS011;8426;48.496;9.098;2023-12-20T09:00:10;0.50;;;0.30;;
16624;SDS011;8426;48.496;9.098;2023-12-20T09:05:17;0.73;;;0.50;;
16624;SDS011;8426;48.496;9.098;2023-12-20T09:10:31;1.33;;;0.40;;
16624;SDS011;8426;48.496;9.098;2023-12-20T09:15:37;0.68;;;0.50;;
16624;SDS011;8426;48.496;9.098;2023-12-20T09:20:42;1.15;;;0.90;;
16624;SDS011;8426;48.496;9.098;2023-12-20T09:25:57;1.55;;;1.00;;
16624;SDS011;8426;48.496;9.098;2023-12-20T09:31:10;1.00;;;0.82;;
16624;SDS011;8426;48.496;9.098;2023-12-20T09:36:15;1.25;;;0.82;;
16624;SDS011;8426;48.496;9.098;2023-12-20T09:41:22;1.02;;;0.90;;
16624;SDS011;8426;48.496;9.098;2023-12-20T09:46:29;2.95;;;0.98;;
16624;SDS011;8426;48.496;9.098;2023-12-20T09:51:36;4.32;;;1.48;;
16624;SDS011;8426;48.496;9.098;2023-12-20T09:56:44;3.45;;;0.80;;
16624;SDS011;8426;48.496;9.098;2023-12-20T10:01:50;5.78;;;0.98;;
16624;SDS011;8426;48.496;9.098;2023-12-20T10:07:01;1.70;;;0.90;;
16624;SDS011;8426;48.496;9.098;2023-12-20T10:12:13;2.38;;;1.13;;
16624;SDS011;8426;48.496;9.098;2023-12-20T10:17:19;4.82;;;1.10;;
16624;SDS011;8426;48.496;9.098;2023-12-20T10:22:25;3.15;;;1.05;;
16624;SDS011;8426;48.496;9.098;2023-12-20T10:27:30;3.22;;;1.25;;
16624;SDS011;8426;48.496;9.098;2023-12-20T10:32:36;1.60;;;1.20;;
16624;SDS011;8426;48.496;9.098;2023-12-20T10:37:42;3.20;;;1.10;;
16624;SDS011;8426;48.496;9.098;2023-12-20T10:42:47;2.50;;;1.00;;
16624;SDS011;8426;48.496;9.098;2023-12-20T10:47:53;4.70;;;1.08;;
16624;SDS011;8426;48.496;9.098;2023-12-20T10:53:01;2.30;;;0.90;;
16624;SDS011;8426;48.496;9.098;2023-12-20T10:58:06;2.00;;;0.80;;
16624;SDS011;8426;48.496;9.098;2023-12-20T11:03:19;1.13;;;0.80;;
16624;SDS011;8426;48.496;9.098;2023-12-20T11:08:27;2.70;;;0.90;;
16624;SDS011;8426;48.496;9.098;2023-12-20T11:13:40;5.57;;;0.77;;
16624;SDS011;8426;48.496;9.098;2023-12-20T11:18:52;2.25;;;0.88;;
16624;SDS011;8426;48.496;9.098;2023-12-20T11:23:57;7.78;;;0.93;;
16624;SDS011;8426;48.496;9.098;2023-12-20T11:34:39;3.40;;;0.70;;
16624;SDS011;8426;48.496;9.098;2023-12-20T11:39:45;5.20;;;1.05;;
16624;SDS011;8426;48.496;9.098;2023-12-20T11:44:58;4.95;;;0.90;;
16624;SDS011;8426;48.496;9.098;2023-12-20T11:50:08;4.68;;;0.93;;
16624;SDS011;8426;48.496;9.098;2023-12-20T11:55:12;4.75;;;1.20;;
16624;SDS011;8426;48.496;9.098;2023-12-20T12:00:16;2.38;;;1.02;;
16624;SDS011;8426;48.496;9.098;2023-12-20T12:05:23;6.05;;;0.95;;
16624;SDS011;8426;48.496;9.098;2023-12-20T12:10:35;2.10;;;0.60;;
16624;SDS011;8426;48.496;9.098;2023-12-20T12:15:39;4.93;;;2.25;;
16624;SDS011;8426;48.496;9.098;2023-12-20T12:20:45;5.03;;;0.90;;
16624;SDS011;8426;48.496;9.098;2023-12-20T12:25:49;5.60;;;1.02;;
16624;SDS011;8426;48.496;9.098;2023-12-20T12:30:57;2.00;;;0.73;;
16624;SDS011;8426;48.496;9.098;2023-12-20T12:36:04;1.48;;;0.70;;
16624;SDS011;8426;48.496;9.098;2023-12-20T12:41:10;10.30;;;1.27;;
16624;SDS011;8426;48.496;9.098;2023-12-20T12:46:17;2.47;;;0.85;;
16624;SDS011;8426;48.496;9.098;2023-12-20T12:51:23;6.93;;;0.90;;
16624;SDS011;8426;48.496;9.098;2023-12-20T12:56:27;2.53;;;0.80;;
16624;SDS011;8426;48.496;9.098;2023-12-20T13:01:31;3.10;;;0.93;;
16624;SDS011;8426;48.496;9.098;2023-12-20T13:06:37;3.50;;;1.25;;
16624;SDS011;8426;48.496;9.098;2023-12-20T13:11:42;1.65;;;0.55;;
16624;SDS011;8426;48.496;9.098;2023-12-20T13:16:46;4.25;;;0.50;;
16624;SDS011;8426;48.496;9.098;2023-12-20T13:21:51;2.10;;;0.90;;
16624;SDS011;8426;48.496;9.098;2023-12-20T13:26:56;3.40;;;0.65;;
16624;SDS011;8426;48.496;9.098;2023-12-20T13:32:02;4.47;;;0.90;;
16624;SDS011;8426;48.496;9.098;2023-12-20T13:37:07;4.75;;;0.85;;
16624;SDS011;8426;48.496;9.098;2023-12-20T13:42:12;6.72;;;0.75;;
16624;SDS011;8426;48.496;9.098;2023-12-20T13:47:17;1.80;;;0.68;;
16624;SDS011;8426;48.496;9.098;2023-12-20T13:52:25;1.90;;;0.80;;
16624;SDS011;8426;48.496;9.098;2023-12-20T13:57:30;2.30;;;0.80;;
16624;SDS011;8426;48.496;9.098;2023-12-20T14:02:37;2.65;;;0.90;;
16624;SDS011;8426;48.496;9.098;2023-12-20T14:07:43;3.28;;;1.00;;
16624;SDS011;8426;48.496;9.098;2023-12-20T14:12:48;4.10;;;0.90;;
16624;SDS011;8426;48.496;9.098;2023-12-20T14:17:51;5.03;;;0.73;;
16624;SDS011;8426;48.496;9.098;2023-12-20T14:22:58;3.38;;;0.77;;
16624;SDS011;8426;48.496;9.098;2023-12-20T14:28:02;2.03;;;0.80;;
16624;SDS011;8426;48.496;9.098;2023-12-20T14:33:06;8.23;;;1.02;;
16624;SDS011;8426;48.496;9.098;2023-12-20T14:38:12;3.00;;;0.93;;
16624;SDS011;8426;48.496;9.098;2023-12-20T14:43:18;5.63;;;0.85;;
16624;SDS011;8426;48.496;9.098;2023-12-20T14:48:24;2.25;;;0.77;;
16624;SDS011;8426;48.496;9.098;2023-12-20T14:53:30;2.15;;;0.60;;
16624;SDS011;8426;48.496;9.098;2023-12-20T14:58:34;4.68;;;0.90;;
16624;SDS011;8426;48.496;9.098;2023-12-20T15:03:38;5.78;;;1.13;;
16624;SDS011;8426;48.496;9.098;2023-12-20T15:08:44;8.25;;;0.95;;
16624;SDS011;8426;48.496;9.098;2023-12-20T15:13:48;4.18;;;0.82;;
16624;SDS011;8426;48.496;9.098;2023-12-20T15:18:57;4.50;;;0.98;;
16624;SDS011;8426;48.496;9.098;2023-12-20T15:24:03;3.35;;;1.05;;
16624;SDS011;8426;48.496;9.098;2023-12-20T15:29:15;3.60;;;1.10;;
16624;SDS011;8426;48.496;9.098;2023-12-20T15:34:19;2.42;;;0.98;;
16624;SDS011;8426;48.496;9.098;2023-12-20T15:39:26;3.03;;;0.88;;
16624;SDS011;8426;48.496;9.098;2023-12-20T15:44:29;6.18;;;1.00;;
16624;SDS011;8426;48.496;9.098;2023-12-20T15:49:33;2.05;;;0.98;;
16624;SDS011;8426;48.496;9.098;2023-12-20T15:54:38;3.30;;;0.93;;
16624;SDS011;8426;48.496;9.098;2023-12-20T15:59:43;5.32;;;1.00;;
16624;SDS011;8426;48.496;9.098;2023-12-20T16:04:47;4.18;;;0.90;;
16624;SDS011;8426;48.496;9.098;2023-12-20T16:09:53;2.20;;;1.00;;
16624;SDS011;8426;48.496;9.098;2023-12-20T16:14:57;5.07;;;1.00;;
16624;SDS011;8426;48.496;9.098;2023-12-20T16:20:00;4.75;;;1.00;;
16624;SDS011;8426;48.496;9.098;2023-12-20T16:25:07;4.30;;;1.00;;
16624;SDS011;8426;48.496;9.098;2023-12-20T16:30:12;2.00;;;0.82;;
16624;SDS011;8426;48.496;9.098;2023-12-20T16:35:17;2.42;;;1.00;;
16624;SDS011;8426;48.496;9.098;2023-12-20T16:40:22;6.63;;;1.05;;
16624;SDS011;8426;48.496;9.098;2023-12-20T16:45:28;2.70;;;0.60;;
16624;SDS011;8426;48.496;9.098;2023-12-20T16:50:37;5.00;;;1.05;;
16624;SDS011;8426;48.496;9.098;2023-12-20T16:55:43;8.77;;;1.05;;
16624;SDS011;8426;48.496;9.098;2023-12-20T17:00:47;3.97;;;0.80;;
16624;SDS011;8426;48.496;9.098;2023-12-20T17:05:50;2.45;;;0.85;;
16624;SDS011;8426;48.496;9.098;2023-12-20T17:10:56;4.63;;;0.90;;
16624;SDS011;8426;48.496;9.098;2023-12-20T17:15:59;3.23;;;1.23;;
16624;SDS011;8426;48.496;9.098;2023-12-20T17:21:03;6.25;;;1.98;;
16624;SDS011;8426;48.496;9.098;2023-12-20T17:26:09;3.28;;;1.13;;
16624;SDS011;8426;48.496;9.098;2023-12-20T17:31:13;2.97;;;0.95;;
16624;SDS011;8426;48.496;9.098;2023-12-20T17:36:18;3.60;;;1.20;;
16624;SDS011;8426;48.496;9.098;2023-12-20T17:41:26;2.80;;;0.82;;
16624;SDS011;8426;48.496;9.098;2023-12-20T17:46:30;7.55;;;1.40;;
16624;SDS011;8426;48.496;9.098;2023-12-20T17:51:35;6.53;;;1.15;;
16624;SDS011;8426;48.496;9.098;2023-12-20T17:56:40;3.70;;;1.02;;
16624;SDS011;8426;48.496;9.098;2023-12-20T18:01:44;2.83;;;1.20;;
16624;SDS011;8426;48.496;9.098;2023-12-20T18:06:48;4.68;;;1.20;;
16624;SDS011;8426;48.496;9.098;2023-12-20T18:11:54;6.72;;;1.17;;
16624;SDS011;8426;48.496;9.098;2023-12-20T18:16:57;1.25;;;0.80;;
16624;SDS011;8426;48.496;9.098;2023-12-20T18:22:02;3.50;;;0.80;;
16624;SDS011;8426;48.496;9.098;2023-12-20T18:27:08;3.67;;;0.80;;
16624;SDS011;8426;48.496;9.098;2023-12-20T18:32:13;2.38;;;0.88;;
16624;SDS011;8426;48.496;9.098;2023-12-20T18:37:23;1.67;;;0.70;;
16624;SDS011;8426;48.496;9.098;2023-12-20T18:42:28;2.63;;;1.00;;
16624;SDS011;8426;48.496;9.098;2023-12-20T18:47:35;5.43;;;1.38;;
16624;SDS011;8426;48.496;9.098;2023-12-20T18:52:43;6.13;;;1.13;;
16624;SDS011;8426;48.496;9.098;2023-12-20T18:57:49;2.35;;;0.80;;
16624;SDS011;8426;48.496;9.098;2023-12-20T19:08:00;7.18;;;0.95;;
16624;SDS011;8426;48.496;9.098;2023-12-20T19:13:07;2.58;;;0.80;;
16624;SDS011;8426;48.496;9.098;2023-12-20T19:18:12;4.03;;;1.15;;
16624;SDS011;8426;48.496;9.098;2023-12-20T19:23:17;1.52;;;0.85;;
16624;SDS011;8426;48.496;9.098;2023-12-20T19:28:23;3.53;;;1.00;;
16624;SDS011;8426;48.496;9.098;2023-12-20T19:33:27;4.03;;;1.10;;
16624;SDS011;8426;48.496;9.098;2023-12-20T19:38:32;5.25;;;1.23;;
16624;SDS011;8426;48.496;9.098;2023-12-20T19:43:38;5.28;;;1.20;;
16624;SDS011;8426;48.496;9.098;2023-12-20T19:48:43;2.58;;;0.90;;
16624;SDS011;8426;48.496;9.098;2023-12-20T19:53:50;4.15;;;1.05;;
16624;SDS011;8426;48.496;9.098;2023-12-20T19:58:56;2.22;;;1.10;;
16624;SDS011;8426;48.496;9.098;2023-12-20T20:04:00;3.67;;;1.40;;
16624;SDS011;8426;48.496;9.098;2023-12-20T20:09:04;3.33;;;1.13;;
16624;SDS011;8426;48.496;9.098;2023-12-20T20:14:11;8.52;;;1.20;;
16624;SDS011;8426;48.496;9.098;2023-12-20T20:19:15;2.85;;;1.08;;
16624;SDS011;8426;48.496;9.098;2023-12-20T20:24:19;2.88;;;1.23;;
16624;SDS011;8426;48.496;9.098;2023-12-20T20:29:24;2.75;;;1.25;;
16624;SDS011;8426;48.496;9.098;2023-12-20T20:34:28;3.83;;;1.63;;
16624;SDS011;8426;48.496;9.098;2023-12-20T20:39:32;8.13;;;1.80;;
16624;SDS011;8426;48.496;9.098;2023-12-20T20:44:38;5.22;;;1.25;;
16624;SDS011;8426;48.496;9.098;2023-12-20T20:49:42;5.55;;;1.25;;
16624;SDS011;8426;48.496;9.098;2023-12-20T20:54:46;2.95;;;1.40;;
16624;SDS011;8426;48.496;9.098;2023-12-20T20:59:52;9.52;;;1.58;;
16624;SDS011;8426;48.496;9.098;2023-12-20T21:04:56;3.45;;;1.50;;
16624;SDS011;8426;48.496;9.098;2023-12-20T21:10:00;3.27;;;1.10;;
16624;SDS011;8426;48.496;9.098;2023-12-20T21:15:07;3.05;;;1.30;;
16624;SDS011;8426;48.496;9.098;2023-12-20T21:20:16;6.10;;;1.33;;
16624;SDS011;8426;48.496;9.098;2023-12-20T21:25:20;3.50;;;1.40;;
16624;SDS011;8426;48.496;9.098;2023-12-20T21:30:26;2.80;;;1.08;;
16624;SDS011;8426;48.496;9.098;2023-12-20T21:35:36;2.10;;;0.98;;
16624;SDS011;8426;48.496;9.098;2023-12-20T21:40:40;2.83;;;1.20;;
16624;SDS011;8426;48.496;9.098;2023-12-20T21:45:45;2.03;;;0.90;;
16624;SDS011;8426;48.496;9.098;2023-12-20T21:50:48;2.58;;;0.90;;
16624;SDS011;8426;48.496;9.098;2023-12-20T21:55:52;6.05;;;0.80;;
16624;SDS011;8426;48.496;9.098;2023-12-20T22:00:58;6.18;;;0.70;;
16624;SDS011;8426;48.496;9.098;2023-12-20T22:06:07;2.90;;;0.70;;
16624;SDS011;8426;48.496;9.098;2023-12-20T22:11:11;1.65;;;0.50;;
16624;SDS011;8426;48.496;9.098;2023-12-20T22:16:16;4.80;;;0.80;;
16624;SDS011;8426;48.496;9.098;2023-12-20T22:21:20;1.95;;;0.77;;
16624;SDS011;8426;48.496;9.098;2023-12-20T22:26:24;1.20;;;0.60;;
16624;SDS011;8426;48.496;9.098;2023-12-20T22:31:29;3.67;;;0.80;;
16624;SDS011;8426;48.496;9.098;2023-12-20T22:36:33;0.80;;;0.50;;
16624;SDS011;8426;48.496;9.098;2023-12-20T22:41:37;1.60;;;0.80;;
16624;SDS011;8426;48.496;9.098;2023-12-20T22:46:44;1.65;;;0.50;;
16624;SDS011;8426;48.496;9.098;2023-12-20T22:51:48;2.47;;;0.70;;
16624;SDS011;8426;48.496;9.098;2023-12-20T22:56:52;1.05;;;0.77;;
16624;SDS011;8426;48.496;9.098;2023-12-20T23:01:58;3.20;;;0.70;;
16624;SDS011;8426;48.496;9.098;2023-12-20T23:07:02;2.25;;;0.80;;
16624;SDS011;8426;48.496;9.098;2023-12-20T23:12:06;1.92;;;0.60;;
16624;SDS011;8426;48.496;9.098;2023-12-20T23:17:11;4.57;;;0.63;;
16624;SDS011;8426;48.496;9.098;2023-12-20T23:22:15;1.60;;;0.50;;
16624;SDS011;8426;48.496;9.098;2023-12-20T23:27:18;0.80;;;0.45;;
16624;SDS011;8426;48.496;9.098;2023-12-20T23:32:24;2.25;;;0.90;;
16624;SDS011;8426;48.496;9.098;2023-12-20T23:37:28;0.55;;;0.40;;
16624;SDS011;8426;48.496;9.098;2023-12-20T23:42:32;3.42;;;0.70;;
16624;SDS011;8426;48.496;9.098;2023-12-20T23:47:37;1.48;;;0.70;;
16624;SDS011;8426;48.496;9.098;2023-12-20T23:52:41;1.65;;;0.65;;
16624;SDS011;8426;48.496;9.098;2023-12-20T23:57:45;2.15;;;0.40;;
